Time;durP1;ratioP1;P1;durP2;ratioP2;P2;SDS_P1;SDS_P2;PMS_P1;PMS_P2;Temp;Humidity;BMP_temperature;BMP_pressure;BME280_temperature;BME280_humidity;BME280_pressure;Samples;Min_cycle;Max_cycle;Signal;HPM_P1;HPM_P2
2020/12/10 00:00:26;;;;;;;51.67;23.40;;;2.50;86.50;;;;;;5048333;28;20064;-86
2020/12/10 00:02:52;;;;;;;49.90;23.20;;;2.50;86.50;;;;;;5017569;28;20140;-87
2020/12/10 00:05:18;;;;;;;49.58;22.63;;;2.60;86.60;;;;;;5027083;28;20056;-86
2020/12/10 00:07:44;;;;;;;45.63;22.17;;;2.60;86.60;;;;;;5034272;28;20021;-87
2020/12/10 00:10:10;;;;;;;51.90;24.15;;;2.60;86.40;;;;;;5016073;28;20033;-87
2020/12/10 00:12:40;;;;;;;49.53;23.02;;;2.60;86.30;;;;;;5043959;28;20036;-86
2020/12/10 00:15:07;;;;;;;44.45;22.98;;;2.60;86.30;;;;;;5026922;28;20024;-86
2020/12/10 00:17:32;;;;;;;47.42;23.35;;;2.60;86.30;;;;;;5044402;28;20109;-87
2020/12/10 00:19:58;;;;;;;44.60;23.08;;;2.60;86.20;;;;;;5052024;28;20087;-86
2020/12/10 00:22:25;;;;;;;46.85;23.33;;;2.60;86.00;;;;;;5038348;28;20053;-87
2020/12/10 00:24:50;;;;;;;48.08;23.42;;;2.60;86.00;;;;;;5040367;28;20496;-86
2020/12/10 00:27:17;;;;;;;47.63;22.92;;;2.50;86.10;;;;;;5054124;28;20036;-87
2020/12/10 00:29:45;;;;;;;47.97;22.70;;;2.50;86.20;;;;;;5051102;28;20459;-86
2020/12/10 00:32:12;;;;;;;45.42;20.90;;;2.50;86.30;;;;;;5032235;28;20235;-86
2020/12/10 00:34:38;;;;;;;43.50;21.10;;;2.50;86.30;;;;;;5036522;28;20029;-87
2020/12/10 00:37:05;;;;;;;46.28;22.02;;;2.50;86.30;;;;;;5033125;28;20048;-86
2020/12/10 00:39:31;;;;;;;48.55;22.50;;;2.60;86.40;;;;;;5017584;28;20029;-87
2020/12/10 00:41:57;;;;;;;45.08;22.00;;;2.50;86.10;;;;;;5018319;28;20030;-86
2020/12/10 00:44:22;;;;;;;46.38;22.13;;;2.60;86.20;;;;;;5024985;28;20117;-87
2020/12/10 00:46:48;;;;;;;43.83;22.08;;;2.60;86.20;;;;;;5019233;28;20492;-87
2020/12/10 00:49:13;;;;;;;41.38;20.02;;;2.60;86.10;;;;;;5041466;28;20446;-87
2020/12/10 00:51:39;;;;;;;42.35;21.85;;;2.60;86.10;;;;;;5032130;28;20226;-87
2020/12/10 00:54:04;;;;;;;42.90;20.00;;;2.60;85.90;;;;;;5038061;28;20090;-87
2020/12/10 00:56:34;;;;;;;41.80;20.90;;;2.50;85.90;;;;;;5029236;28;20033;-86
2020/12/10 00:59:00;;;;;;;42.47;20.52;;;2.50;86.20;;;;;;5065907;28;20053;-86
2020/12/10 01:01:26;;;;;;;40.20;19.77;;;2.50;86.00;;;;;;5035657;28;20393;-86
2020/12/10 01:03:51;;;;;;;38.55;18.75;;;2.50;86.10;;;;;;5036197;28;20025;-87
2020/12/10 01:06:17;;;;;;;42.30;19.48;;;2.50;86.00;;;;;;5049571;28;20037;-87
2020/12/10 01:08:43;;;;;;;36.92;18.60;;;2.50;86.10;;;;;;5038033;28;20049;-86
2020/12/10 01:11:08;;;;;;;37.75;19.30;;;2.50;86.50;;;;;;5024340;28;20627;-86
2020/12/10 01:13:34;;;;;;;40.47;19.40;;;2.60;86.10;;;;;;5035127;28;20136;-86
2020/12/10 01:16:00;;;;;;;40.83;19.13;;;2.60;86.00;;;;;;5019189;28;20116;-87
2020/12/10 01:18:26;;;;;;;41.72;20.15;;;2.60;85.90;;;;;;5021918;28;20034;-87
2020/12/10 01:20:55;;;;;;;41.28;19.90;;;2.60;85.60;;;;;;5047270;28;20440;-86
2020/12/10 01:23:20;;;;;;;38.75;20.75;;;2.50;85.60;;;;;;5038808;28;20040;-86
2020/12/10 01:25:46;;;;;;;38.45;18.35;;;2.50;85.40;;;;;;5039458;28;20094;-87
2020/12/10 01:28:12;;;;;;;42.53;19.85;;;2.50;85.50;;;;;;5038656;28;20017;-86
2020/12/10 01:30:37;;;;;;;43.95;20.73;;;2.50;85.70;;;;;;5019643;28;20305;-87
2020/12/10 01:33:06;;;;;;;43.03;20.55;;;2.50;85.80;;;;;;5037627;28;20041;-87
2020/12/10 01:35:32;;;;;;;46.70;20.95;;;2.50;86.20;;;;;;5038655;28;20024;-87
2020/12/10 01:37:59;;;;;;;50.67;21.10;;;2.50;85.80;;;;;;5038943;28;20190;-86
2020/12/10 01:40:25;;;;;;;40.30;21.40;;;2.50;85.90;;;;;;5054265;28;20484;-87
2020/12/10 01:42:54;;;;;;;44.97;20.58;;;2.50;85.70;;;;;;5041801;28;20090;-87
2020/12/10 01:45:35;;;;;;;45.40;21.70;;;2.50;85.70;;;;;;5033313;28;20105;-87
2020/12/10 01:48:00;;;;;;;46.25;21.90;;;2.50;85.70;;;;;;5038819;28;20033;-87
2020/12/10 01:50:26;;;;;;;45.63;22.65;;;2.50;85.70;;;;;;5037939;28;20032;-87
2020/12/10 01:52:52;;;;;;;43.80;20.20;;;2.50;85.70;;;;;;5055150;28;20083;-86
2020/12/10 01:55:18;;;;;;;44.30;21.73;;;2.50;85.80;;;;;;5034594;28;20032;-86
2020/12/10 01:57:43;;;;;;;50.78;21.83;;;2.50;85.90;;;;;;5056490;28;20045;-87
2020/12/10 02:00:09;;;;;;;45.67;21.60;;;2.50;85.80;;;;;;5038587;28;20056;-87
2020/12/10 02:02:34;;;;;;;46.35;21.60;;;2.50;86.00;;;;;;5021104;28;20559;-86
2020/12/10 02:05:00;;;;;;;46.88;21.42;;;2.60;85.70;;;;;;5038306;28;20025;-87
2020/12/10 02:07:26;;;;;;;48.75;21.75;;;2.50;85.70;;;;;;5036538;28;20033;-87
2020/12/10 02:09:51;;;;;;;45.95;20.45;;;2.60;85.70;;;;;;5032184;28;20025;-87
2020/12/10 02:12:17;;;;;;;40.67;19.55;;;2.60;85.80;;;;;;5048248;28;20035;-86
2020/12/10 02:14:42;;;;;;;37.75;18.50;;;2.60;85.70;;;;;;5052670;28;20106;-87
2020/12/10 02:17:08;;;;;;;32.45;16.95;;;2.60;85.80;;;;;;5033806;28;20257;-87
2020/12/10 02:19:34;;;;;;;31.63;16.90;;;2.60;85.50;;;;;;5022287;28;20616;-87
2020/12/10 02:22:00;;;;;;;36.95;17.52;;;2.50;85.30;;;;;;5025897;28;20036;-87
2020/12/10 02:24:26;;;;;;;35.53;16.70;;;2.50;85.60;;;;;;5043712;28;20056;-87
2020/12/10 02:26:52;;;;;;;33.90;16.17;;;2.50;85.70;;;;;;5039374;28;20021;-86
2020/12/10 02:29:18;;;;;;;29.65;15.35;;;2.50;85.70;;;;;;5030294;28;20505;-86
2020/12/10 02:31:44;;;;;;;33.15;16.20;;;2.50;85.60;;;;;;5028495;28;20426;-87
2020/12/10 02:34:10;;;;;;;32.28;15.90;;;2.50;85.60;;;;;;5033772;28;20025;-87
2020/12/10 02:36:37;;;;;;;29.23;15.25;;;2.40;85.70;;;;;;5054672;28;20099;-87
2020/12/10 02:39:05;;;;;;;34.40;15.55;;;2.40;85.70;;;;;;5026208;28;20143;-87
2020/12/10 02:41:31;;;;;;;30.75;15.98;;;2.50;85.80;;;;;;5045400;28;20036;-87
2020/12/10 02:43:56;;;;;;;30.90;15.90;;;2.50;85.80;;;;;;5018314;28;20083;-87
2020/12/10 02:46:22;;;;;;;28.95;14.25;;;2.50;86.20;;;;;;5045416;28;20029;-86
2020/12/10 02:48:48;;;;;;;32.40;15.23;;;2.60;85.80;;;;;;5037054;28;20032;-87
2020/12/10 02:51:13;;;;;;;27.95;15.18;;;2.60;85.60;;;;;;5028248;28;20033;-87
2020/12/10 02:53:39;;;;;;;29.33;15.38;;;2.60;85.40;;;;;;5018074;28;20048;-87
2020/12/10 02:56:13;;;;;;;26.67;14.02;;;2.50;85.20;;;;;;5025657;28;20025;-89
2020/12/10 02:58:39;;;;;;;25.40;13.60;;;2.50;85.10;;;;;;5036496;28;20033;-89
2020/12/10 03:01:06;;;;;;;30.73;14.05;;;2.50;85.10;;;;;;5030582;28;20025;-88
2020/12/10 03:03:32;;;;;;;27.83;14.20;;;2.40;85.30;;;;;;5046153;28;20040;-89
2020/12/10 03:05:58;;;;;;;25.02;13.55;;;2.40;85.30;;;;;;5038079;28;20086;-88
2020/12/10 03:08:23;;;;;;;24.60;13.18;;;2.40;85.40;;;;;;5043400;28;20032;-88
2020/12/10 03:10:50;;;;;;;26.25;13.93;;;2.40;85.30;;;;;;5032824;28;20063;-88
2020/12/10 03:13:16;;;;;;;26.58;14.32;;;2.40;85.20;;;;;;5025180;28;20021;-89
2020/12/10 03:15:42;;;;;;;26.00;14.70;;;2.30;85.10;;;;;;5022957;28;20524;-88
2020/12/10 03:18:08;;;;;;;24.33;12.98;;;2.30;85.20;;;;;;5027837;28;20071;-88
2020/12/10 03:20:34;;;;;;;24.75;12.63;;;2.30;85.40;;;;;;5016729;28;20029;-88
2020/12/10 03:22:59;;;;;;;27.27;14.27;;;2.30;85.20;;;;;;5026427;28;20040;-87
2020/12/10 03:25:25;;;;;;;27.35;14.18;;;2.30;85.30;;;;;;5037450;28;20025;-88
2020/12/10 03:27:51;;;;;;;25.55;12.15;;;2.20;85.30;;;;;;5035273;28;20111;-88
2020/12/10 03:30:17;;;;;;;20.08;11.13;;;2.20;85.20;;;;;;5049358;28;20116;-89
2020/12/10 03:32:42;;;;;;;23.92;11.55;;;2.20;85.30;;;;;;5027571;28;20367;-89
2020/12/10 03:35:08;;;;;;;22.85;12.10;;;2.20;85.40;;;;;;5017752;28;20022;-87
2020/12/10 03:37:33;;;;;;;22.15;11.20;;;2.20;85.60;;;;;;5016760;28;20034;-88
2020/12/10 03:39:59;;;;;;;20.15;10.00;;;2.30;85.40;;;;;;5023870;28;20024;-87
2020/12/10 03:42:25;;;;;;;17.00;10.48;;;2.20;85.40;;;;;;5054535;28;20044;-88
2020/12/10 03:44:50;;;;;;;17.08;9.30;;;2.20;85.00;;;;;;5047697;28;20017;-86
2020/12/10 03:47:16;;;;;;;19.33;10.00;;;2.20;85.00;;;;;;5056967;28;20025;-88
2020/12/10 03:49:41;;;;;;;16.92;9.65;;;2.20;85.10;;;;;;5026229;28;20033;-88
2020/12/10 03:52:07;;;;;;;15.65;9.00;;;2.10;85.00;;;;;;5017658;28;20029;-88
2020/12/10 03:54:32;;;;;;;18.02;9.82;;;2.20;85.40;;;;;;5032241;28;20021;-88
2020/12/10 03:56:58;;;;;;;15.48;8.88;;;2.20;85.50;;;;;;5036268;28;20045;-88
2020/12/10 03:59:24;;;;;;;19.48;9.98;;;2.20;85.20;;;;;;5031983;28;20048;-88
2020/12/10 04:01:49;;;;;;;16.48;9.48;;;2.20;85.20;;;;;;5048909;28;20107;-88
2020/12/10 04:04:15;;;;;;;20.55;10.85;;;2.20;85.30;;;;;;5035062;28;20039;-87
2020/12/10 04:06:43;;;;;;;19.83;10.35;;;2.20;85.30;;;;;;5017086;28;20032;-89
2020/12/10 04:09:12;;;;;;;19.95;9.90;;;2.20;85.10;;;;;;5027385;28;20033;-88
2020/12/10 04:11:39;;;;;;;19.42;9.60;;;2.20;85.00;;;;;;5039104;28;20040;-88
2020/12/10 04:14:05;;;;;;;18.52;10.05;;;2.20;84.90;;;;;;5030321;28;20044;-88
2020/12/10 04:16:30;;;;;;;22.45;11.70;;;2.20;85.10;;;;;;5036336;28;20032;-88
2020/12/10 04:18:56;;;;;;;25.95;13.02;;;2.20;85.20;;;;;;5022703;28;20033;-87
2020/12/10 04:21:21;;;;;;;23.98;12.88;;;2.30;85.30;;;;;;5015032;28;20037;-88
2020/12/10 04:23:47;;;;;;;23.85;13.30;;;2.30;85.40;;;;;;5030720;28;20040;-88
2020/12/10 04:26:16;;;;;;;28.75;14.18;;;2.30;85.30;;;;;;5036417;28;20044;-89
2020/12/10 04:28:43;;;;;;;23.92;12.68;;;2.40;85.30;;;;;;5020487;28;20053;-88
2020/12/10 04:31:09;;;;;;;18.05;10.25;;;2.40;85.30;;;;;;5014643;28;20113;-88
2020/12/10 04:33:35;;;;;;;18.92;10.70;;;2.40;85.10;;;;;;5038995;28;20092;-88
2020/12/10 04:36:00;;;;;;;15.48;9.48;;;2.40;84.90;;;;;;5016444;28;20030;-88
2020/12/10 04:38:26;;;;;;;15.75;9.23;;;2.40;84.70;;;;;;5039943;28;20529;-89
2020/12/10 04:40:52;;;;;;;18.27;10.20;;;2.30;84.70;;;;;;5032075;28;20371;-88
2020/12/10 04:43:26;;;;;;;17.65;9.82;;;2.30;84.80;;;;;;5025260;28;20131;-88
2020/12/10 04:45:56;;;;;;;16.27;8.88;;;2.30;84.70;;;;;;5017318;28;20075;-88
2020/12/10 04:48:24;;;;;;;19.13;10.82;;;2.30;84.80;;;;;;5018635;28;20018;-88
2020/12/10 04:50:50;;;;;;;18.58;10.40;;;2.30;85.10;;;;;;5035370;28;20025;-88
2020/12/10 04:53:16;;;;;;;16.13;9.23;;;2.30;84.90;;;;;;5028112;28;20123;-88
2020/12/10 04:55:42;;;;;;;18.60;9.85;;;2.30;84.90;;;;;;5042574;28;20489;-88
2020/12/10 04:58:10;;;;;;;15.82;9.38;;;2.30;85.00;;;;;;5034304;28;20037;-88
2020/12/10 05:00:35;;;;;;;18.10;10.45;;;2.40;85.40;;;;;;5031739;28;20091;-88
2020/12/10 05:03:01;;;;;;;17.10;10.13;;;2.40;85.10;;;;;;5016572;28;20029;-88
2020/12/10 05:05:31;;;;;;;18.15;10.13;;;2.40;85.00;;;;;;5019367;28;20033;-88
2020/12/10 05:07:59;;;;;;;19.85;11.20;;;2.40;84.80;;;;;;5031426;28;20033;-88
2020/12/10 05:10:25;;;;;;;18.83;11.18;;;2.50;84.80;;;;;;5034161;28;20025;-88
2020/12/10 05:12:51;;;;;;;20.67;11.23;;;2.50;84.70;;;;;;5024493;28;20405;-88
2020/12/10 05:15:31;;;;;;;16.35;10.38;;;2.50;84.70;;;;;;5033188;28;20033;-88
2020/12/10 05:18:04;;;;;;;18.33;10.40;;;2.50;84.70;;;;;;5038213;28;20025;-88
2020/12/10 05:20:49;;;;;;;17.83;10.13;;;2.50;84.70;;;;;;5037292;28;20570;-88
2020/12/10 05:23:34;;;;;;;19.42;11.00;;;2.50;84.50;;;;;;5028963;28;20485;-88
2020/12/10 05:26:04;;;;;;;19.40;10.18;;;2.50;84.30;;;;;;5051911;28;20017;-88
2020/12/10 05:28:48;;;;;;;18.05;10.20;;;2.50;84.50;;;;;;5030841;28;20121;-88
2020/12/10 05:31:17;;;;;;;18.45;10.30;;;2.50;84.60;;;;;;5034866;28;20473;-88
2020/12/10 05:33:57;;;;;;;17.40;9.82;;;2.50;84.60;;;;;;5033198;28;20040;-88
2020/12/10 05:36:24;;;;;;;16.92;10.45;;;2.50;84.60;;;;;;5036357;28;20511;-88
2020/12/10 05:39:03;;;;;;;18.13;9.52;;;2.40;84.60;;;;;;5031778;28;20029;-89
2020/12/10 05:41:29;;;;;;;17.13;10.15;;;2.40;84.60;;;;;;5017295;28;20510;-88
2020/12/10 05:43:55;;;;;;;21.80;10.95;;;2.40;84.70;;;;;;5028712;28;20035;-88
2020/12/10 05:46:25;;;;;;;17.75;10.60;;;2.50;84.70;;;;;;5053990;28;20436;-87
2020/12/10 05:48:51;;;;;;;18.23;10.07;;;2.50;84.70;;;;;;5033616;28;20036;-88
2020/12/10 05:51:22;;;;;;;19.35;10.77;;;2.50;84.60;;;;;;5035902;28;20057;-88
2020/12/10 05:53:49;;;;;;;20.35;10.98;;;2.50;84.50;;;;;;5052070;28;20138;-89
2020/12/10 05:56:17;;;;;;;21.52;10.98;;;2.50;84.50;;;;;;5040159;28;20025;-88
2020/12/10 05:58:47;;;;;;;20.13;11.60;;;2.50;84.50;;;;;;5037954;28;20083;-88
2020/12/10 06:01:33;;;;;;;24.40;12.95;;;2.50;84.50;;;;;;5056744;28;20023;-88
2020/12/10 06:03:59;;;;;;;19.92;11.23;;;2.60;84.50;;;;;;5034829;28;20025;-88
2020/12/10 06:06:28;;;;;;;21.30;12.00;;;2.60;84.50;;;;;;5039658;28;20033;-88
2020/12/10 06:09:00;;;;;;;22.73;11.57;;;2.60;84.50;;;;;;5020989;28;20026;-88
2020/12/10 06:11:27;;;;;;;18.20;10.32;;;2.60;84.50;;;;;;5036823;28;20037;-88
2020/12/10 06:14:01;;;;;;;18.98;10.35;;;2.60;84.30;;;;;;5034371;28;20024;-89
2020/12/10 06:16:29;;;;;;;17.67;10.05;;;2.50;84.10;;;;;;5047029;28;20165;-90
2020/12/10 06:19:06;;;;;;;19.60;10.68;;;2.40;84.30;;;;;;5037235;28;20033;-90
2020/12/10 06:21:45;;;;;;;19.95;11.25;;;2.40;84.50;;;;;;5027152;28;20115;-89
2020/12/10 06:24:26;;;;;;;19.02;10.77;;;2.30;84.50;;;;;;5023452;28;20006;-89
2020/12/10 06:26:56;;;;;;;19.90;11.70;;;2.30;84.60;;;;;;5031372;28;20021;-90
2020/12/10 06:29:28;;;;;;;21.02;12.20;;;2.30;84.60;;;;;;5031338;28;20032;-89
2020/12/10 06:32:01;;;;;;;25.67;13.32;;;2.30;84.70;;;;;;5031891;28;20055;-90
2020/12/10 06:34:37;;;;;;;23.75;13.20;;;2.30;84.90;;;;;;5035857;28;20484;-90
2020/12/10 06:37:24;;;;;;;25.90;13.73;;;2.30;84.80;;;;;;5016537;28;20025;-90
2020/12/10 06:39:52;;;;;;;25.83;13.20;;;2.30;84.70;;;;;;5018569;28;20065;-89
2020/12/10 06:42:21;;;;;;;25.40;13.60;;;2.30;84.70;;;;;;5026592;28;20098;-90
2020/12/10 06:44:48;;;;;;;24.05;13.27;;;2.30;84.60;;;;;;5016050;28;20113;-89
2020/12/10 06:47:15;;;;;;;23.55;13.35;;;2.20;84.70;;;;;;5037914;28;20070;-89
2020/12/10 06:49:41;;;;;;;22.20;13.57;;;2.20;84.80;;;;;;5038346;28;20038;-89
2020/12/10 06:52:14;;;;;;;22.23;12.00;;;2.30;84.90;;;;;;5022672;28;20025;-88
2020/12/10 06:55:01;;;;;;;;;;;2.30;85.00;;;;;;5024512;28;20081;-90
2020/12/10 06:57:50;;;;;;;26.05;13.25;;;2.30;84.90;;;;;;5020724;28;20340;-89
2020/12/10 07:00:35;;;;;;;22.95;13.25;;;2.30;84.50;;;;;;5024434;28;20084;-89
2020/12/10 07:03:14;;;;;;;25.42;14.27;;;2.30;84.60;;;;;;5017448;28;20048;-89
2020/12/10 07:05:40;;;;;;;26.85;14.00;;;2.20;84.50;;;;;;5035382;28;20112;-88
2020/12/10 07:08:07;;;;;;;24.42;13.93;;;2.20;84.60;;;;;;5018750;28;20095;-89
2020/12/10 07:10:50;;;;;;;27.88;14.63;;;2.20;84.80;;;;;;5019283;28;20044;-89
2020/12/10 07:13:28;;;;;;;25.38;15.07;;;2.10;84.70;;;;;;5026631;28;20497;-90
2020/12/10 07:15:54;;;;;;;29.63;15.82;;;2.10;84.80;;;;;;5035743;28;20091;-88
2020/12/10 07:18:20;;;;;;;27.98;14.73;;;2.10;85.00;;;;;;5035662;28;20025;-89
2020/12/10 07:20:45;;;;;;;28.02;14.80;;;2.10;85.00;;;;;;5052111;28;20436;-89
2020/12/10 07:23:11;;;;;;;25.05;14.07;;;2.10;85.10;;;;;;5023269;28;20021;-89
2020/12/10 07:25:37;;;;;;;26.33;14.05;;;2.10;85.00;;;;;;5031372;28;20029;-89
2020/12/10 07:28:02;;;;;;;27.27;14.85;;;2.10;84.90;;;;;;5036062;28;20496;-90
2020/12/10 07:33:25;;;;;;;29.13;15.23;;;2.20;84.90;;;;;;5060734;23;20048;-66
2020/12/10 07:35:50;;;;;;;28.75;15.13;;;2.10;84.80;;;;;;5053339;28;20044;-66
2020/12/10 07:38:16;;;;;;;27.13;14.90;;;2.20;84.90;;;;;;5053435;28;20041;-66
2020/12/10 07:40:42;;;;;;;31.42;15.48;;;2.20;85.00;;;;;;5047665;28;20113;-66
2020/12/10 07:43:10;;;;;;;28.42;15.38;;;2.20;84.90;;;;;;5032810;28;20127;-66
2020/12/10 07:45:37;;;;;;;26.70;13.73;;;2.20;84.80;;;;;;5033489;28;20021;-66
2020/12/10 07:48:04;;;;;;;31.30;14.57;;;2.20;84.70;;;;;;5026724;28;20573;-66
2020/12/10 07:50:32;;;;;;;28.13;14.98;;;2.10;84.70;;;;;;5014297;28;20030;-66
2020/12/10 07:53:04;;;;;;;26.70;13.57;;;2.10;84.70;;;;;;5032319;28;20021;-66
2020/12/10 07:55:33;;;;;;;26.30;14.23;;;2.10;84.80;;;;;;5010012;28;20204;-66
2020/12/10 07:58:41;;;;;;;27.40;14.50;;;2.10;84.80;;;;;;5032487;28;20033;-66
2020/12/10 08:01:08;;;;;;;28.98;14.40;;;2.10;85.10;;;;;;5029338;28;20109;-66
2020/12/10 08:03:59;;;;;;;31.70;14.23;;;2.10;85.00;;;;;;5032497;28;20021;-66
2020/12/10 08:06:30;;;;;;;30.52;14.43;;;2.10;85.00;;;;;;5031886;28;20021;-66
2020/12/10 08:09:00;;;;;;;28.58;12.73;;;2.10;84.80;;;;;;5020471;28;20036;-65
2020/12/10 08:11:26;;;;;;;25.08;12.63;;;2.10;84.80;;;;;;5032124;28;20052;-66
2020/12/10 08:14:02;;;;;;;31.50;14.93;;;2.00;84.80;;;;;;5032482;28;20482;-66
2020/12/10 08:16:40;;;;;;;28.50;14.32;;;2.00;84.90;;;;;;5030425;28;20041;-66
2020/12/10 08:19:20;;;;;;;30.05;13.95;;;2.00;85.00;;;;;;5014231;28;20867;-66
2020/12/10 08:21:48;;;;;;;32.08;15.10;;;2.10;85.20;;;;;;5013883;28;20056;-66
2020/12/10 08:24:14;;;;;;;33.03;15.38;;;2.10;85.10;;;;;;5031516;28;20514;-66
2020/12/10 08:26:41;;;;;;;35.90;15.77;;;2.10;85.00;;;;;;5033000;28;20346;-65
2020/12/10 08:29:07;;;;;;;32.72;16.23;;;2.10;84.90;;;;;;5031673;28;20056;-65
2020/12/10 08:31:33;;;;;;;31.27;14.60;;;2.10;84.90;;;;;;5032031;28;20105;-66
2020/12/10 08:33:59;;;;;;;34.05;15.20;;;2.20;85.00;;;;;;5029371;28;20022;-66
2020/12/10 08:36:30;;;;;;;29.98;14.07;;;2.20;85.00;;;;;;5030633;28;20367;-66
2020/12/10 08:38:57;;;;;;;30.33;14.05;;;2.20;85.00;;;;;;5020712;28;20494;-66
2020/12/10 08:41:27;;;;;;;30.67;13.85;;;2.20;84.90;;;;;;5027714;28;20088;-65
2020/12/10 08:44:01;;;;;;;35.88;15.23;;;2.20;85.00;;;;;;5031866;28;20030;-66
2020/12/10 08:46:28;;;;;;;31.15;13.95;;;2.20;85.00;;;;;;5032407;28;20029;-66
2020/12/10 08:48:55;;;;;;;35.00;15.05;;;2.10;84.90;;;;;;5014032;28;20029;-66
2020/12/10 08:51:21;;;;;;;35.53;15.45;;;2.10;85.00;;;;;;5031128;28;20359;-66
2020/12/10 08:53:52;;;;;;;44.22;18.40;;;2.10;85.10;;;;;;5031179;28;20037;-66
2020/12/10 08:56:32;;;;;;;44.45;17.15;;;2.10;85.20;;;;;;5032564;28;20026;-66
2020/12/10 08:58:57;;;;;;;41.72;17.77;;;2.10;85.10;;;;;;5031428;28;20022;-66
2020/12/10 09:01:23;;;;;;;48.58;20.48;;;2.10;85.10;;;;;;5030694;28;20037;-65
2020/12/10 09:03:49;;;;;;;43.75;17.92;;;2.10;85.20;;;;;;5030812;28;20036;-66
2020/12/10 09:06:14;;;;;;;39.85;17.20;;;2.10;85.20;;;;;;5031965;28;20042;-66
2020/12/10 09:08:40;;;;;;;37.60;17.35;;;2.10;85.70;;;;;;5027869;28;20065;-66
2020/12/10 09:11:07;;;;;;;35.60;16.10;;;2.20;85.30;;;;;;5022483;28;20049;-66
2020/12/10 09:13:32;;;;;;;38.10;16.15;;;2.20;85.40;;;;;;5032718;28;20025;-66
2020/12/10 09:15:58;;;;;;;31.50;14.55;;;2.20;85.20;;;;;;5026108;28;20096;-66
2020/12/10 09:18:24;;;;;;;26.65;10.75;;;2.30;85.30;;;;;;5021442;28;20381;-67
2020/12/10 09:20:50;;;;;;;19.90;9.95;;;2.30;85.20;;;;;;5031184;28;20029;-67
2020/12/10 09:23:17;;;;;;;22.65;10.57;;;2.30;85.10;;;;;;5031972;28;20052;-66
2020/12/10 09:25:42;;;;;;;16.70;8.07;;;2.40;85.20;;;;;;5032382;28;20017;-67
2020/12/10 09:28:09;;;;;;;16.55;7.95;;;2.40;84.90;;;;;;5033974;28;20144;-67
2020/12/10 09:30:38;;;;;;;20.40;9.23;;;2.30;84.90;;;;;;5034747;28;20032;-66
2020/12/10 09:33:04;;;;;;;24.60;10.25;;;2.30;84.90;;;;;;5018282;28;20367;-67
2020/12/10 09:35:31;;;;;;;24.02;10.57;;;2.30;84.90;;;;;;5035889;28;20048;-66
2020/12/10 09:37:57;;;;;;;23.88;11.18;;;2.30;84.90;;;;;;5035195;28;20478;-66
2020/12/10 09:40:23;;;;;;;22.50;10.90;;;2.30;84.80;;;;;;5035347;28;20029;-67
2020/12/10 09:42:49;;;;;;;27.25;12.75;;;2.30;84.90;;;;;;5035331;28;20029;-66
2020/12/10 09:45:16;;;;;;;24.67;11.90;;;2.30;84.90;;;;;;5035863;28;20070;-66
2020/12/10 09:47:44;;;;;;;21.65;11.13;;;2.30;84.80;;;;;;5035096;28;20053;-67
2020/12/10 09:50:19;;;;;;;21.63;11.23;;;2.30;84.60;;;;;;5032254;28;20025;-67
2020/12/10 09:52:53;;;;;;;22.90;11.02;;;2.20;84.80;;;;;;5034935;28;20686;-67
2020/12/10 09:55:44;;;;;;;23.33;11.18;;;2.30;84.90;;;;;;5035817;28;20534;-66
2020/12/10 09:58:10;;;;;;;24.40;11.40;;;2.30;84.80;;;;;;5033460;28;20058;-67
2020/12/10 10:00:36;;;;;;;28.30;12.73;;;2.30;84.80;;;;;;5034458;28;20401;-67
2020/12/10 10:03:08;;;;;;;25.00;11.63;;;2.40;84.80;;;;;;5034156;28;20037;-66
2020/12/10 10:05:34;;;;;;;27.42;11.68;;;2.40;84.80;;;;;;5035670;28;20374;-67
2020/12/10 10:08:00;;;;;;;25.25;10.85;;;2.50;84.60;;;;;;5035316;28;20021;-64
2020/12/10 10:10:26;;;;;;;28.02;13.35;;;2.50;84.30;;;;;;5033982;28;20506;-64
2020/12/10 10:12:52;;;;;;;25.00;12.52;;;2.40;84.40;;;;;;5035655;28;20140;-64
2020/12/10 10:15:18;;;;;;;24.85;11.82;;;2.50;84.50;;;;;;5034450;28;20112;-65
2020/12/10 10:17:44;;;;;;;25.35;11.70;;;2.50;84.30;;;;;;5035385;28;20029;-64
2020/12/10 10:20:09;;;;;;;20.45;9.85;;;2.50;84.40;;;;;;5034861;28;20542;-64
2020/12/10 10:22:38;;;;;;;23.55;9.95;;;2.50;84.40;;;;;;5016487;28;20449;-64
2020/12/10 10:25:05;;;;;;;23.92;10.25;;;2.40;84.40;;;;;;5035293;28;20018;-64
2020/12/10 10:27:30;;;;;;;22.35;10.50;;;2.50;84.50;;;;;;5022004;28;20038;-65
2020/12/10 10:29:56;;;;;;;21.15;9.70;;;2.50;85.00;;;;;;5023208;28;20449;-65
2020/12/10 10:32:22;;;;;;;22.08;11.05;;;2.50;84.50;;;;;;5034803;28;20033;-65
2020/12/10 10:34:47;;;;;;;24.60;10.55;;;2.50;84.40;;;;;;5034980;28;20029;-64
2020/12/10 10:37:13;;;;;;;26.58;11.65;;;2.50;84.40;;;;;;5034244;28;20494;-64
2020/12/10 10:39:38;;;;;;;30.60;12.73;;;2.50;84.40;;;;;;5034283;28;20381;-64
2020/12/10 10:42:05;;;;;;;25.33;12.15;;;2.50;84.40;;;;;;5035055;28;20029;-64
2020/12/10 10:44:31;;;;;;;29.83;13.23;;;2.50;84.50;;;;;;5034007;28;20087;-64
2020/12/10 10:46:56;;;;;;;30.55;12.18;;;2.60;84.50;;;;;;5034249;28;20025;-66
2020/12/10 10:49:22;;;;;;;30.08;12.45;;;2.60;84.40;;;;;;5033842;28;20538;-65
2020/12/10 10:51:48;;;;;;;27.13;12.38;;;2.70;84.40;;;;;;5034845;28;20589;-66
2020/12/10 10:54:14;;;;;;;26.98;12.30;;;2.70;84.30;;;;;;5034471;28;20075;-66
2020/12/10 10:56:39;;;;;;;22.73;11.50;;;2.80;84.10;;;;;;5034619;28;20026;-65
2020/12/10 10:59:05;;;;;;;27.17;11.63;;;2.90;84.00;;;;;;5034488;28;20139;-66
2020/12/10 11:01:31;;;;;;;25.17;11.38;;;3.00;83.80;;;;;;5033705;28;20046;-66
2020/12/10 11:03:57;;;;;;;22.90;10.82;;;3.00;83.60;;;;;;5035122;28;20124;-65
2020/12/10 11:06:23;;;;;;;33.88;13.65;;;3.00;83.50;;;;;;5034057;28;20374;-65
2020/12/10 11:08:49;;;;;;;24.58;11.82;;;3.10;83.70;;;;;;5034104;28;20045;-65
2020/12/10 11:11:21;;;;;;;24.38;10.05;;;3.10;83.30;;;;;;5034351;28;20029;-65
2020/12/10 11:13:47;;;;;;;22.80;10.30;;;3.20;83.40;;;;;;5034989;28;20032;-66
2020/12/10 11:16:14;;;;;;;17.73;8.55;;;3.20;83.30;;;;;;5034036;28;20022;-65
2020/12/10 11:18:44;;;;;;;15.52;6.82;;;3.30;83.20;;;;;;5033509;28;20026;-66
2020/12/10 11:21:12;;;;;;;12.75;6.93;;;3.40;82.80;;;;;;5029298;28;20465;-65
2020/12/10 11:23:38;;;;;;;17.27;8.32;;;3.40;82.80;;;;;;5013869;28;20037;-66
2020/12/10 11:26:04;;;;;;;18.33;9.57;;;3.40;82.80;;;;;;5016556;28;20029;-66
2020/12/10 11:28:30;;;;;;;22.15;10.80;;;3.40;82.80;;;;;;5033214;28;20401;-66
2020/12/10 11:30:56;;;;;;;14.73;8.30;;;3.60;83.10;;;;;;5033224;28;20032;-65
2020/12/10 11:33:22;;;;;;;18.85;9.05;;;3.80;83.00;;;;;;5033541;28;20045;-66
2020/12/10 11:35:48;;;;;;;14.68;8.00;;;3.80;81.80;;;;;;5033042;28;20022;-66
2020/12/10 11:38:13;;;;;;;17.55;8.98;;;3.80;81.80;;;;;;5027119;28;20372;-66
2020/12/10 11:40:40;;;;;;;15.27;8.27;;;3.90;82.30;;;;;;5013072;28;20033;-66
2020/12/10 11:43:06;;;;;;;18.40;7.95;;;4.00;82.00;;;;;;5013338;28;20022;-66
2020/12/10 11:45:32;;;;;;;16.63;7.85;;;4.00;81.90;;;;;;5024633;28;20030;-66
2020/12/10 11:48:02;;;;;;;13.45;6.85;;;4.10;82.00;;;;;;5014770;28;20079;-66
2020/12/10 11:50:28;;;;;;;13.50;6.90;;;4.20;81.90;;;;;;5032588;28;20029;-66
2020/12/10 11:52:53;;;;;;;9.38;5.90;;;4.20;81.50;;;;;;5033080;28;20021;-66
2020/12/10 11:55:19;;;;;;;11.82;6.30;;;4.30;81.30;;;;;;5032418;28;20040;-66
2020/12/10 11:57:45;;;;;;;12.40;5.93;;;4.30;81.20;;;;;;5033366;28;20021;-66
2020/12/10 12:00:11;;;;;;;11.32;6.32;;;4.30;81.10;;;;;;5032300;28;20116;-66
2020/12/10 12:02:38;;;;;;;13.45;6.75;;;4.30;81.10;;;;;;5033241;28;20025;-67
2020/12/10 12:05:05;;;;;;;11.60;6.28;;;4.30;81.40;;;;;;5032886;28;20018;-66
2020/12/10 12:07:31;;;;;;;13.20;5.93;;;4.20;81.40;;;;;;5014518;28;20033;-66
2020/12/10 12:09:57;;;;;;;12.25;6.35;;;4.20;81.60;;;;;;5032485;28;20032;-67
2020/12/10 12:12:22;;;;;;;11.80;6.70;;;4.30;81.80;;;;;;5032362;28;20041;-66
2020/12/10 12:14:48;;;;;;;12.25;6.45;;;4.40;81.80;;;;;;5027237;28;20037;-66
2020/12/10 12:17:13;;;;;;;11.82;5.68;;;4.50;81.60;;;;;;5032858;28;20068;-66
2020/12/10 12:19:40;;;;;;;17.83;8.65;;;4.40;81.40;;;;;;5030927;28;20026;-66
2020/12/10 12:22:06;;;;;;;19.70;9.25;;;4.40;81.40;;;;;;5031669;28;20431;-66
2020/12/10 12:24:31;;;;;;;22.52;10.85;;;4.40;81.30;;;;;;5032425;28;20025;-66
2020/12/10 12:26:57;;;;;;;23.75;11.77;;;4.30;81.30;;;;;;5032818;28;20144;-66
2020/12/10 12:29:22;;;;;;;22.73;10.98;;;4.30;81.30;;;;;;5013804;28;20033;-66
2020/12/10 12:31:48;;;;;;;27.02;11.75;;;4.30;81.30;;;;;;5032627;28;20033;-66
2020/12/10 12:34:15;;;;;;;24.23;11.43;;;4.30;81.20;;;;;;5032294;28;20056;-67
2020/12/10 12:36:41;;;;;;;21.08;10.98;;;4.20;81.30;;;;;;5032116;28;20018;-67
2020/12/10 12:39:07;;;;;;;21.38;10.63;;;4.20;81.30;;;;;;5031044;28;20030;-66
2020/12/10 12:41:33;;;;;;;21.88;11.13;;;4.10;81.40;;;;;;5031877;28;20040;-67
2020/12/10 12:44:00;;;;;;;24.00;12.30;;;4.00;81.40;;;;;;5014700;28;20028;-66